createdAt,value
2023-01-09T00:01:40.488Z,89.07
2023-01-09T00:04:11.456Z,77.87
2023-01-09T00:06:40.340Z,63.47
2023-01-09T00:09:07.902Z,58.37
2023-01-09T00:11:35.522Z,51.33
2023-01-09T00:14:03.574Z,38.83
2023-01-09T00:16:31.549Z,33.17
2023-01-09T00:19:00.449Z,30.43
2023-01-09T00:21:27.971Z,27.00
2023-01-09T00:23:55.963Z,26.10
2023-01-09T00:26:23.840Z,28.43
2023-01-09T00:28:54.204Z,26.80
2023-01-09T00:31:22.638Z,27.77
2023-01-09T00:34:10.510Z,32.87
2023-01-09T00:36:38.059Z,35.27
2023-01-09T00:39:06.556Z,35.33
2023-01-09T00:41:42.719Z,44.57
2023-01-09T00:44:20.487Z,35.60
2023-01-09T00:46:53.424Z,33.27
2023-01-09T00:49:22.078Z,28.97
2023-01-09T00:51:49.837Z,29.47
2023-01-09T00:54:20.043Z,29.87
2023-01-09T00:56:47.844Z,33.00
2023-01-09T00:59:15.565Z,16.30
2023-01-09T01:01:43.269Z,12.90
2023-01-09T01:04:29.354Z,12.23
2023-01-09T01:07:15.614Z,14.20
2023-01-09T01:09:43.295Z,14.17
2023-01-09T01:12:10.786Z,11.13
2023-01-09T01:14:39.531Z,14.20
2023-01-09T01:17:08.027Z,16.60
2023-01-09T01:19:36.432Z,16.53
2023-01-09T01:22:04.798Z,22.37
2023-01-09T01:24:32.496Z,22.00
2023-01-09T01:26:59.995Z,22.63
2023-01-09T01:29:27.896Z,27.17
2023-01-09T01:31:55.462Z,37.53
2023-01-09T01:34:23.619Z,35.03
2023-01-09T01:36:51.149Z,31.07
2023-01-09T01:39:21.672Z,26.93
2023-01-09T01:41:49.133Z,44.80
2023-01-09T01:45:05.895Z,44.90
2023-01-09T01:47:45.015Z,50.57
2023-01-09T01:50:26.782Z,29.77
2023-01-09T01:53:07.004Z,21.07
2023-01-09T01:55:39.238Z,18.50
2023-01-09T01:58:11.664Z,16.30
2023-01-09T02:00:44.690Z,21.83
2023-01-09T02:03:16.068Z,22.50
2023-01-09T02:05:43.902Z,22.93
2023-01-09T02:08:12.293Z,24.20
2023-01-09T02:10:40.933Z,21.80
2023-01-09T02:13:09.808Z,21.63
2023-01-09T02:15:47.614Z,23.43
2023-01-09T02:18:27.375Z,20.10
2023-01-09T02:21:12.639Z,19.30
2023-01-09T02:24:18.362Z,18.53
2023-01-09T02:27:03.763Z,20.27
2023-01-09T02:30:01.800Z,18.70
2023-01-09T02:32:47.038Z,21.77
2023-01-09T02:35:28.526Z,21.70
2023-01-09T02:38:16.074Z,21.50
2023-01-09T02:41:13.803Z,18.50
2023-01-09T02:43:41.870Z,19.90
2023-01-09T02:46:35.845Z,17.87
2023-01-09T02:49:03.364Z,19.20
2023-01-09T02:51:53.030Z,17.67
2023-01-09T02:54:26.149Z,18.77
2023-01-09T02:57:24.684Z,20.30
2023-01-09T03:00:35.048Z,20.17
2023-01-09T03:03:34.010Z,18.83
2023-01-09T03:06:55.125Z,21.13
2023-01-09T03:09:28.261Z,21.33
2023-01-09T03:12:16.538Z,20.07
2023-01-09T03:14:50.896Z,19.67
2023-01-09T03:17:32.210Z,16.97
2023-01-09T03:20:04.711Z,19.03
2023-01-09T03:22:32.345Z,17.87
2023-01-09T03:24:59.838Z,20.70
2023-01-09T03:27:27.757Z,18.13
2023-01-09T03:29:56.635Z,20.30
2023-01-09T03:32:24.176Z,19.00
2023-01-09T03:34:51.770Z,21.00
2023-01-09T03:37:19.372Z,23.40
2023-01-09T03:39:46.904Z,19.13
2023-01-09T03:42:14.536Z,24.23
2023-01-09T03:44:41.995Z,20.43
2023-01-09T03:47:09.473Z,20.93
2023-01-09T03:49:36.956Z,18.07
2023-01-09T03:52:04.709Z,17.33
2023-01-09T03:54:32.177Z,19.33
2023-01-09T03:56:59.714Z,21.17
2023-01-09T03:59:27.329Z,18.03
2023-01-09T04:01:54.942Z,22.77
2023-01-09T04:04:22.541Z,18.03
2023-01-09T04:06:52.833Z,20.97
2023-01-09T04:09:20.367Z,79.63
2023-01-09T04:11:47.847Z,29.10
2023-01-09T04:14:15.554Z,24.87
2023-01-09T04:16:43.590Z,23.03
2023-01-09T04:19:11.096Z,40.17
2023-01-09T04:21:38.547Z,28.90
2023-01-09T04:24:06.646Z,26.23
2023-01-09T04:26:34.098Z,44.33
2023-01-09T04:29:01.707Z,30.63
2023-01-09T04:31:29.219Z,26.63
2023-01-09T04:33:56.710Z,34.30
2023-01-09T04:36:24.236Z,30.80
2023-01-09T04:38:51.761Z,31.00
2023-01-09T04:41:37.812Z,38.13
2023-01-09T04:44:06.379Z,50.47
2023-01-09T04:46:36.888Z,55.03
2023-01-09T04:49:04.418Z,44.77
2023-01-09T04:51:32.042Z,81.70
2023-01-09T04:53:59.564Z,102.00
2023-01-09T04:56:27.082Z,77.63
2023-01-09T04:58:54.683Z,80.63
2023-01-09T05:01:22.493Z,77.90
2023-01-09T05:03:50.249Z,73.50
2023-01-09T05:06:18.332Z,68.87
2023-01-09T05:08:45.993Z,85.40
2023-01-09T05:11:13.471Z,110.47
2023-01-09T05:13:41.195Z,94.33
2023-01-09T05:16:09.286Z,116.03
2023-01-09T05:18:37.117Z,113.33
2023-01-09T05:21:05.182Z,122.77
2023-01-09T05:23:32.651Z,115.50
2023-01-09T05:26:00.653Z,130.27
2023-01-09T05:28:29.340Z,137.17
2023-01-09T05:30:57.017Z,217.90
2023-01-09T05:33:24.963Z,164.87
2023-01-09T05:35:52.479Z,147.67
2023-01-09T05:38:19.924Z,182.67
2023-01-09T05:40:47.397Z,157.97
2023-01-09T05:43:14.873Z,163.80
2023-01-09T05:45:43.089Z,186.47
2023-01-09T05:48:10.600Z,186.07
2023-01-09T05:50:38.107Z,170.13
2023-01-09T05:53:06.729Z,126.93
2023-01-09T05:55:34.418Z,160.00
2023-01-09T05:58:02.525Z,156.63
2023-01-09T06:00:30.174Z,129.17
2023-01-09T06:02:57.934Z,172.43
2023-01-09T06:05:25.838Z,204.67
2023-01-09T06:07:53.300Z,172.77
2023-01-09T06:10:20.957Z,192.80
2023-01-09T06:12:50.860Z,173.17
2023-01-09T06:15:20.686Z,205.83
2023-01-09T06:17:48.717Z,165.17
2023-01-09T06:20:16.332Z,193.20
2023-01-09T06:22:45.309Z,169.33
2023-01-09T06:25:15.134Z,173.33
2023-01-09T06:27:42.697Z,171.73
2023-01-09T06:30:10.999Z,159.87
2023-01-09T06:32:38.456Z,136.67
2023-01-09T06:35:06.840Z,183.97
2023-01-09T06:37:34.463Z,169.13
2023-01-09T06:40:02.007Z,135.00
2023-01-09T06:42:30.630Z,125.73
2023-01-09T06:44:58.191Z,168.43
2023-01-09T06:47:25.648Z,142.57
2023-01-09T06:49:53.223Z,110.73
2023-01-09T06:52:20.742Z,119.97
2023-01-09T06:54:48.199Z,83.27
2023-01-09T06:57:16.335Z,139.50
2023-01-09T06:59:43.921Z,107.40
2023-01-09T07:02:21.949Z,118.97
2023-01-09T07:04:49.577Z,100.97
2023-01-09T07:07:17.114Z,119.43
2023-01-09T07:09:44.661Z,85.40
2023-01-09T07:12:12.942Z,87.57
2023-01-09T07:14:40.577Z,105.20
2023-01-09T07:17:08.120Z,144.33
2023-01-09T07:19:35.638Z,85.17
2023-01-09T07:22:03.113Z,205.23
2023-01-09T07:24:33.216Z,201.87
2023-01-09T07:27:00.812Z,225.03
2023-01-09T07:29:28.294Z,190.67
2023-01-09T07:31:55.776Z,145.63
2023-01-09T07:34:23.315Z,152.87
2023-01-09T07:36:51.268Z,141.87
2023-01-09T07:39:18.812Z,224.73
2023-01-09T07:41:46.853Z,152.10
2023-01-09T07:44:16.461Z,100.13
2023-01-09T07:46:44.004Z,88.17
2023-01-09T07:49:11.531Z,70.17
2023-01-09T07:51:43.030Z,115.10
2023-01-09T07:54:12.663Z,142.10
2023-01-09T07:56:41.257Z,184.93
2023-01-09T07:59:09.240Z,164.00
2023-01-09T08:01:37.108Z,174.70
2023-01-09T08:04:04.823Z,171.97
2023-01-09T08:06:32.636Z,150.30
2023-01-09T08:09:01.740Z,174.53
2023-01-09T08:11:29.225Z,150.50
2023-01-09T08:13:56.732Z,111.67
2023-01-09T08:16:24.413Z,138.93
2023-01-09T08:18:51.939Z,176.70
2023-01-09T08:21:19.352Z,175.80
2023-01-09T08:23:47.879Z,187.97
2023-01-09T08:26:15.340Z,107.33
2023-01-09T08:28:42.869Z,100.07
2023-01-09T08:31:10.341Z,100.47
2023-01-09T08:33:40.421Z,140.43
2023-01-09T08:36:08.616Z,124.90
2023-01-09T08:38:36.166Z,144.37
2023-01-09T08:41:23.629Z,121.73
2023-01-09T08:44:11.267Z,96.20
2023-01-09T08:46:57.469Z,125.10
2023-01-09T08:49:24.906Z,79.67
2023-01-09T08:51:52.341Z,107.33
2023-01-09T08:54:19.875Z,80.03
2023-01-09T08:56:47.398Z,72.93
2023-01-09T08:59:17.866Z,89.17
2023-01-09T09:01:45.470Z,83.53
2023-01-09T09:04:13.045Z,84.97
2023-01-09T09:06:40.801Z,100.50
2023-01-09T09:09:08.382Z,95.13
2023-01-09T09:11:36.664Z,80.33
2023-01-09T09:14:27.369Z,82.67
2023-01-09T09:16:55.078Z,66.50
2023-01-09T09:19:22.739Z,54.33
2023-01-09T09:21:50.398Z,55.73
2023-01-09T09:24:18.079Z,61.47
2023-01-09T09:26:45.581Z,64.50
2023-01-09T09:29:13.197Z,79.43
2023-01-09T09:31:40.791Z,102.80
2023-01-09T09:34:08.974Z,74.50
2023-01-09T09:36:36.624Z,90.13
2023-01-09T09:39:07.199Z,65.87
2023-01-09T09:42:25.400Z,76.20
2023-01-09T09:45:18.367Z,50.70
2023-01-09T09:48:19.176Z,44.17
2023-01-09T09:51:06.868Z,47.83
2023-01-09T09:53:55.081Z,51.67
2023-01-09T09:56:24.480Z,49.93
2023-01-09T09:59:01.854Z,61.67
2023-01-09T10:02:00.355Z,61.30
2023-01-09T10:04:32.587Z,57.10
2023-01-09T10:07:14.059Z,54.30
2023-01-09T10:09:54.430Z,60.23
2023-01-09T10:12:45.168Z,53.87
2023-01-09T10:15:31.469Z,46.40
2023-01-09T10:18:25.494Z,46.47
2023-01-09T10:21:03.556Z,50.90
2023-01-09T10:23:49.119Z,112.43
2023-01-09T10:26:38.199Z,99.80
2023-01-09T10:29:44.916Z,79.90
2023-01-09T10:32:46.099Z,54.13
2023-01-09T10:35:47.965Z,48.90
2023-01-09T10:38:25.832Z,49.23
2023-01-09T10:41:04.027Z,54.57
2023-01-09T10:43:37.862Z,43.07
2023-01-09T10:46:18.432Z,48.63
2023-01-09T10:48:52.797Z,48.60
2023-01-09T10:51:43.522Z,52.53
2023-01-09T10:54:23.348Z,52.47
2023-01-09T10:57:07.294Z,52.77
2023-01-09T10:59:36.436Z,48.43
2023-01-09T11:02:04.435Z,50.13
2023-01-09T11:04:36.521Z,48.70
2023-01-09T11:07:17.210Z,52.27
2023-01-09T11:10:09.809Z,49.43
2023-01-09T11:12:37.730Z,50.17
2023-01-09T11:15:31.311Z,58.40
2023-01-09T11:18:20.179Z,63.07
2023-01-09T11:20:48.281Z,57.27
2023-01-09T11:23:33.672Z,48.77
2023-01-09T11:26:03.135Z,46.10
2023-01-09T11:28:31.443Z,47.40
2023-01-09T11:31:02.416Z,54.10
2023-01-09T11:33:36.556Z,62.17
2023-01-09T11:36:15.192Z,61.20
2023-01-09T11:38:55.933Z,148.27
2023-01-09T11:41:34.471Z,58.33
2023-01-09T11:44:05.153Z,176.37
2023-01-09T11:46:43.986Z,58.20
2023-01-09T11:49:22.883Z,64.73
2023-01-09T11:52:15.190Z,53.40
2023-01-09T11:55:06.813Z,50.57
2023-01-09T11:57:34.714Z,49.83
2023-01-09T12:00:25.840Z,55.23
2023-01-09T12:03:02.200Z,58.83
2023-01-09T12:05:55.440Z,59.73
2023-01-09T12:08:51.644Z,54.90
2023-01-09T12:11:39.786Z,48.17
2023-01-09T12:14:31.491Z,46.23
2023-01-09T12:18:11.165Z,41.90
2023-01-09T12:20:59.915Z,44.20
2023-01-09T12:23:55.026Z,42.87
2023-01-09T12:26:24.020Z,40.00
2023-01-09T12:29:07.340Z,39.13
2023-01-09T12:31:58.922Z,39.47
2023-01-09T12:34:59.205Z,39.03
2023-01-09T12:38:05.271Z,36.83
2023-01-09T12:41:00.176Z,35.77
2023-01-09T12:43:50.920Z,40.83
2023-01-09T12:46:26.821Z,38.50
2023-01-09T12:49:29.801Z,39.40
2023-01-09T12:52:24.436Z,42.00
2023-01-09T12:55:05.012Z,40.67
2023-01-09T12:57:43.071Z,43.43
2023-01-09T13:00:22.860Z,44.10
2023-01-09T13:03:16.176Z,38.67
2023-01-09T13:05:49.557Z,42.37
2023-01-09T13:08:39.071Z,44.17
2023-01-09T13:11:20.448Z,42.90
2023-01-09T13:14:51.334Z,45.87
2023-01-09T13:17:30.740Z,47.07
2023-01-09T13:19:58.355Z,46.83
2023-01-09T13:22:29.286Z,47.90
2023-01-09T13:25:24.984Z,45.33
2023-01-09T13:28:00.795Z,46.67
2023-01-09T13:31:03.784Z,49.00
2023-01-09T13:33:37.153Z,49.57
2023-01-09T13:36:05.882Z,45.90
2023-01-09T13:38:36.380Z,47.70
2023-01-09T13:41:35.615Z,48.80
2023-01-09T13:44:28.801Z,56.87
2023-01-09T13:47:01.207Z,60.73
2023-01-09T13:49:41.917Z,49.90
2023-01-09T13:52:45.607Z,69.70
2023-01-09T13:55:16.003Z,64.50
2023-01-09T13:58:13.682Z,59.73
2023-01-09T14:00:44.196Z,113.97
2023-01-09T14:03:38.751Z,108.83
2023-01-09T14:06:13.259Z,123.83
2023-01-09T14:08:42.086Z,110.70
2023-01-09T14:11:11.410Z,116.63
2023-01-09T14:13:38.958Z,72.00
2023-01-09T14:16:20.720Z,80.90
2023-01-09T14:19:14.470Z,62.73
2023-01-09T14:22:00.039Z,49.73
2023-01-09T14:24:34.493Z,49.77
2023-01-09T14:27:02.642Z,46.27
2023-01-09T14:29:35.843Z,47.23
2023-01-09T14:32:26.496Z,46.13
2023-01-09T14:35:08.194Z,48.97
2023-01-09T14:37:40.698Z,43.73
2023-01-09T14:40:21.885Z,50.13
2023-01-09T14:42:57.130Z,39.33
2023-01-09T14:45:27.779Z,41.57
2023-01-09T14:48:02.803Z,43.47
2023-01-09T14:50:48.865Z,38.90
2023-01-09T14:53:28.465Z,45.53
2023-01-09T14:55:59.656Z,43.17
2023-01-09T14:58:33.663Z,42.17
2023-01-09T15:01:05.123Z,45.33
2023-01-09T15:03:51.562Z,46.00
2023-01-09T15:06:23.148Z,49.43
2023-01-09T15:09:12.747Z,45.87
2023-01-09T15:11:40.917Z,47.43
2023-01-09T15:14:18.749Z,49.57
2023-01-09T15:16:46.358Z,43.73
2023-01-09T15:19:16.674Z,38.83
2023-01-09T15:21:59.098Z,44.43
2023-01-09T15:24:29.930Z,40.97
2023-01-09T15:27:01.963Z,50.20
2023-01-09T15:29:30.248Z,50.83
2023-01-09T15:32:30.419Z,51.30
2023-01-09T15:34:58.745Z,54.57
2023-01-09T15:37:34.521Z,57.50
2023-01-09T15:40:08.103Z,59.33
2023-01-09T15:42:58.059Z,62.43
2023-01-09T15:45:44.798Z,60.13
2023-01-09T15:48:21.846Z,57.30
2023-01-09T15:50:58.706Z,65.67
2023-01-09T15:53:27.998Z,68.90
2023-01-09T15:56:31.057Z,62.80
2023-01-09T15:59:00.582Z,62.53
2023-01-09T16:01:36.052Z,68.30
2023-01-09T16:04:15.814Z,66.13
2023-01-09T16:06:50.501Z,66.67
2023-01-09T16:09:31.240Z,70.27
2023-01-09T16:12:02.222Z,69.10
2023-01-09T16:14:35.323Z,64.57
2023-01-09T16:17:08.008Z,77.60
2023-01-09T16:19:55.418Z,80.77
2023-01-09T16:22:36.255Z,67.03
2023-01-09T16:25:31.678Z,75.93
2023-01-09T16:28:15.273Z,68.90
2023-01-09T16:31:28.652Z,92.97
2023-01-09T16:34:07.011Z,79.07
2023-01-09T16:36:36.322Z,101.30
2023-01-09T16:39:04.498Z,110.73
2023-01-09T16:41:51.144Z,102.03
2023-01-09T16:44:19.470Z,107.57
2023-01-09T16:46:49.827Z,107.03
2023-01-09T16:49:29.449Z,119.97
2023-01-09T16:51:57.233Z,119.50
2023-01-09T16:54:24.703Z,99.03
2023-01-09T16:56:55.219Z,84.60
2023-01-09T16:59:29.603Z,154.20
2023-01-09T17:01:59.731Z,200.53
2023-01-09T17:04:30.300Z,124.77
2023-01-09T17:06:57.746Z,97.83
2023-01-09T17:09:27.882Z,129.67
2023-01-09T17:11:55.327Z,130.17
2023-01-09T17:14:24.620Z,205.47
2023-01-09T17:16:53.553Z,211.60
2023-01-09T17:19:21.703Z,194.07
2023-01-09T17:21:52.465Z,125.27
2023-01-09T17:24:41.085Z,104.67
2023-01-09T17:27:31.006Z,211.33
2023-01-09T17:30:03.005Z,128.10
2023-01-09T17:32:33.674Z,104.07
2023-01-09T17:35:04.646Z,111.47
2023-01-09T17:37:32.260Z,142.50
2023-01-09T17:40:03.922Z,137.63
2023-01-09T17:42:33.127Z,139.50
2023-01-09T17:45:02.179Z,165.10
2023-01-09T17:47:30.197Z,159.43
2023-01-09T17:50:00.770Z,144.50
2023-01-09T17:52:29.137Z,125.50
2023-01-09T17:54:57.089Z,144.90
2023-01-09T17:57:25.219Z,106.83
2023-01-09T17:59:52.689Z,116.87
2023-01-09T18:02:20.770Z,96.07
2023-01-09T18:04:50.127Z,134.63
2023-01-09T18:07:21.692Z,123.10
2023-01-09T18:09:50.239Z,208.80
2023-01-09T18:12:19.755Z,338.60
2023-01-09T18:14:48.726Z,177.70
2023-01-09T18:17:17.063Z,106.83
2023-01-09T18:19:46.421Z,106.50
2023-01-09T18:22:18.957Z,98.73
2023-01-09T18:24:49.698Z,118.17
2023-01-09T18:27:18.484Z,118.07
2023-01-09T18:29:50.389Z,152.17
2023-01-09T18:32:21.218Z,150.83
2023-01-09T18:34:52.089Z,135.63
2023-01-09T18:37:21.621Z,127.63
2023-01-09T18:39:50.635Z,208.27
2023-01-09T18:42:19.552Z,147.70
2023-01-09T18:44:51.825Z,134.60
2023-01-09T18:47:19.351Z,124.00
2023-01-09T18:49:50.837Z,89.33
2023-01-09T18:52:21.416Z,104.77
2023-01-09T18:55:12.031Z,89.73
2023-01-09T18:57:41.011Z,140.80
2023-01-09T19:00:14.395Z,175.87
2023-01-09T19:02:45.607Z,128.63
2023-01-09T19:05:15.624Z,53.27
2023-01-09T19:07:48.292Z,56.67
2023-01-09T19:10:18.789Z,109.20
2023-01-09T19:12:48.842Z,239.13
2023-01-09T19:15:18.403Z,109.03
2023-01-09T19:17:46.912Z,122.97
2023-01-09T19:20:14.800Z,192.60
2023-01-09T19:23:06.457Z,102.77
2023-01-09T19:25:34.785Z,71.77
2023-01-09T19:28:03.877Z,71.57
2023-01-09T19:30:36.900Z,61.70
2023-01-09T19:33:08.088Z,64.53
2023-01-09T19:35:38.501Z,55.40
2023-01-09T19:38:12.511Z,60.33
2023-01-09T19:40:41.641Z,54.23
2023-01-09T19:43:28.231Z,57.10
2023-01-09T19:46:00.858Z,59.53
2023-01-09T19:48:36.936Z,63.13
2023-01-09T19:51:10.325Z,55.40
2023-01-09T19:53:51.559Z,64.73
2023-01-09T19:56:23.333Z,72.13
2023-01-09T19:58:59.314Z,71.93
2023-01-09T20:01:36.085Z,67.67
2023-01-09T20:04:14.541Z,84.13
2023-01-09T20:06:53.999Z,67.93
2023-01-09T20:09:24.237Z,72.27
2023-01-09T20:11:59.495Z,78.53
2023-01-09T20:14:31.263Z,82.93
2023-01-09T20:17:02.395Z,78.90
2023-01-09T20:19:34.065Z,73.93
2023-01-09T20:22:05.484Z,88.93
2023-01-09T20:24:35.668Z,90.73
2023-01-09T20:27:14.033Z,88.03
2023-01-09T20:29:45.741Z,87.57
2023-01-09T20:32:34.258Z,92.90
2023-01-09T20:35:06.183Z,87.37
2023-01-09T20:37:45.557Z,90.43
2023-01-09T20:40:19.979Z,96.87
2023-01-09T20:42:47.526Z,105.57
2023-01-09T20:45:16.253Z,109.90
2023-01-09T20:47:48.174Z,115.00
2023-01-09T20:50:22.583Z,121.93
2023-01-09T20:52:52.027Z,120.37
2023-01-09T20:55:24.664Z,121.57
2023-01-09T20:58:15.409Z,116.40
2023-01-09T21:00:47.490Z,114.53
2023-01-09T21:03:17.028Z,102.07
2023-01-09T21:05:44.784Z,106.10
2023-01-09T21:08:13.543Z,109.13
2023-01-09T21:10:44.018Z,108.37
2023-01-09T21:13:13.909Z,103.93
2023-01-09T21:15:41.566Z,108.33
2023-01-09T21:18:29.207Z,123.47
2023-01-09T21:20:56.857Z,134.43
2023-01-09T21:23:27.118Z,139.00
2023-01-09T21:25:54.595Z,120.93
2023-01-09T21:28:23.735Z,136.50
2023-01-09T21:30:51.235Z,144.07
2023-01-09T21:33:23.062Z,126.87
2023-01-09T21:35:58.167Z,107.80
2023-01-09T21:38:33.643Z,97.67
2023-01-09T21:41:20.012Z,94.70
2023-01-09T21:44:05.992Z,98.47
2023-01-09T21:46:52.198Z,105.97
2023-01-09T21:49:23.374Z,103.90
2023-01-09T21:51:51.866Z,113.53
2023-01-09T21:54:23.476Z,99.20
2023-01-09T21:56:53.035Z,91.33
2023-01-09T21:59:21.026Z,100.03
2023-01-09T22:01:50.230Z,92.53
2023-01-09T22:04:21.117Z,91.23
2023-01-09T22:06:48.659Z,86.73
2023-01-09T22:09:16.681Z,95.43
2023-01-09T22:11:44.864Z,88.73
2023-01-09T22:14:19.155Z,94.67
2023-01-09T22:16:47.533Z,87.60
2023-01-09T22:19:18.157Z,90.73
2023-01-09T22:21:48.461Z,91.53
2023-01-09T22:24:19.306Z,89.23
2023-01-09T22:26:46.863Z,90.30
2023-01-09T22:29:16.363Z,100.37
2023-01-09T22:31:44.148Z,98.97
2023-01-09T22:34:16.774Z,101.77
2023-01-09T22:36:46.107Z,94.97
2023-01-09T22:39:16.546Z,99.83
2023-01-09T22:41:44.417Z,101.53
2023-01-09T22:44:14.561Z,103.90
2023-01-09T22:46:42.062Z,94.37
2023-01-09T22:49:12.608Z,106.47
2023-01-09T22:51:40.251Z,94.13
2023-01-09T22:54:08.321Z,88.50
2023-01-09T22:56:36.267Z,83.50
2023-01-09T22:59:04.188Z,100.17
2023-01-09T23:01:31.763Z,105.73
2023-01-09T23:03:59.284Z,89.03
2023-01-09T23:06:26.792Z,85.13
2023-01-09T23:08:54.832Z,93.33
2023-01-09T23:11:45.698Z,92.43
2023-01-09T23:14:17.736Z,90.30
2023-01-09T23:16:45.450Z,86.87
2023-01-09T23:19:14.683Z,86.23
2023-01-09T23:21:43.528Z,83.30
2023-01-09T23:24:12.587Z,88.57
2023-01-09T23:26:40.246Z,86.93
2023-01-09T23:29:08.336Z,78.80
2023-01-09T23:31:37.807Z,78.17
2023-01-09T23:34:08.156Z,74.27
2023-01-09T23:36:37.577Z,82.47
2023-01-09T23:39:09.016Z,80.73
2023-01-09T23:41:56.066Z,75.87
2023-01-09T23:44:27.139Z,69.93
2023-01-09T23:46:54.730Z,72.47
2023-01-09T23:49:22.624Z,73.10
2023-01-09T23:51:50.240Z,70.53
2023-01-09T23:54:17.702Z,63.23
2023-01-09T23:56:45.282Z,74.37
2023-01-09T23:59:14.699Z,72.20
